Time;durP1;ratioP1;P1;durP2;ratioP2;P2;SDS_P1;SDS_P2;PMS_P1;PMS_P2;Temp;Humidity;BMP_temperature;BMP_pressure;BME280_temperature;BME280_humidity;BME280_pressure;Samples;Min_cycle;Max_cycle;Signal;HPM_P1;HPM_P2
2021/07/08 00:02:18;;;;;;;11.13;6.93;;;17.80;85.90;;;;;;5057434;28;20029;-80
2021/07/08 00:04:43;;;;;;;11.70;6.72;;;17.80;86.00;;;;;;5057786;28;20511;-80
2021/07/08 00:07:10;;;;;;;10.02;6.35;;;17.80;86.10;;;;;;5074433;28;20154;-80
2021/07/08 00:09:36;;;;;;;10.55;6.30;;;17.70;86.20;;;;;;5057710;28;20021;-79
2021/07/08 00:12:04;;;;;;;11.05;6.70;;;17.70;86.30;;;;;;5074385;28;20502;-80
2021/07/08 00:14:30;;;;;;;11.05;6.32;;;17.70;86.50;;;;;;5074327;28;20074;-80
2021/07/08 00:16:55;;;;;;;9.43;6.80;;;17.70;86.60;;;;;;5074009;28;20459;-80
2021/07/08 00:19:21;;;;;;;11.05;7.15;;;17.70;86.70;;;;;;5074196;28;20078;-80
2021/07/08 00:21:47;;;;;;;9.98;6.03;;;17.70;86.70;;;;;;5074187;28;20506;-80
2021/07/08 00:24:12;;;;;;;10.50;6.38;;;17.60;86.90;;;;;;5073957;28;20024;-80
2021/07/08 00:26:38;;;;;;;13.20;7.00;;;17.60;87.00;;;;;;5057275;28;20078;-80
2021/07/08 00:29:04;;;;;;;9.55;6.40;;;17.60;87.20;;;;;;5074042;28;20028;-80
2021/07/08 00:31:30;;;;;;;9.82;5.70;;;17.60;87.30;;;;;;5072871;28;20017;-80
2021/07/08 00:33:56;;;;;;;11.57;6.57;;;17.60;87.30;;;;;;5073596;28;20059;-80
2021/07/08 00:36:21;;;;;;;11.57;6.53;;;17.60;87.40;;;;;;5073631;28;20024;-80
2021/07/08 00:38:47;;;;;;;11.05;6.55;;;17.60;87.40;;;;;;5056664;28;20169;-80
2021/07/08 00:41:13;;;;;;;8.65;6.07;;;17.60;87.40;;;;;;5056806;28;20448;-80
2021/07/08 00:43:38;;;;;;;11.93;6.22;;;17.60;87.40;;;;;;5073625;28;20494;-80
2021/07/08 00:46:05;;;;;;;11.10;6.57;;;17.50;87.40;;;;;;5073791;28;20039;-77
2021/07/08 00:48:31;;;;;;;10.27;6.40;;;17.50;87.40;;;;;;5073681;28;20166;-77
2021/07/08 00:50:56;;;;;;;12.00;6.80;;;17.50;87.60;;;;;;5074282;28;20066;-77
2021/07/08 00:53:22;;;;;;;10.00;6.35;;;17.50;87.80;;;;;;5056720;28;20479;-77
2021/07/08 00:56:03;;;;;;;11.55;6.03;;;17.40;87.80;;;;;;5056683;28;20031;-77
2021/07/08 00:58:28;;;;;;;9.40;6.43;;;17.50;88.10;;;;;;5074606;28;20476;-77
2021/07/08 01:00:54;;;;;;;11.07;6.68;;;17.50;88.10;;;;;;5074762;28;20032;-77
2021/07/08 01:03:22;;;;;;;12.00;6.47;;;17.50;88.00;;;;;;5073373;28;20029;-77
2021/07/08 01:05:50;;;;;;;11.82;5.95;;;17.50;88.10;;;;;;5072639;28;20760;-77
2021/07/08 01:08:16;;;;;;;9.48;5.97;;;17.40;88.10;;;;;;5056923;28;20039;-77
2021/07/08 01:10:45;;;;;;;13.88;6.68;;;17.40;88.20;;;;;;5056936;28;20075;-77
2021/07/08 01:13:14;;;;;;;9.90;7.10;;;17.40;88.40;;;;;;5073016;28;20099;-77
2021/07/08 01:15:42;;;;;;;9.80;6.50;;;17.40;88.50;;;;;;5072186;28;20119;-77
2021/07/08 01:18:08;;;;;;;10.68;6.82;;;17.40;88.70;;;;;;5072959;28;20400;-77
2021/07/08 01:20:34;;;;;;;11.70;6.93;;;17.40;89.10;;;;;;5056281;28;20025;-77
2021/07/08 01:23:01;;;;;;;9.65;6.55;;;17.40;89.40;;;;;;5073278;28;20024;-78
2021/07/08 01:25:33;;;;;;;10.82;6.72;;;17.40;89.80;;;;;;5074049;28;20103;-77
2021/07/08 01:28:01;;;;;;;8.98;6.78;;;17.40;90.00;;;;;;5072684;28;20043;-78
2021/07/08 01:30:27;;;;;;;10.32;6.97;;;17.40;90.10;;;;;;5072445;28;20021;-77
2021/07/08 01:32:54;;;;;;;11.40;7.07;;;17.40;90.20;;;;;;5072621;28;20024;-77
2021/07/08 01:35:20;;;;;;;11.10;7.13;;;17.40;90.30;;;;;;5072542;28;20024;-80
2021/07/08 01:37:45;;;;;;;12.77;6.97;;;17.40;90.30;;;;;;5055759;28;20060;-80
2021/07/08 01:40:13;;;;;;;10.10;7.38;;;17.40;90.30;;;;;;5055849;28;20482;-80
2021/07/08 01:42:39;;;;;;;10.73;6.85;;;17.40;90.20;;;;;;5072219;28;20033;-80
2021/07/08 01:45:07;;;;;;;10.52;6.80;;;17.50;90.30;;;;;;5072304;28;20040;-80
2021/07/08 01:47:33;;;;;;;9.15;6.97;;;17.50;90.30;;;;;;5072386;28;20480;-80
2021/07/08 01:49:59;;;;;;;11.55;7.65;;;17.50;90.30;;;;;;5056290;28;20029;-79
2021/07/08 01:52:25;;;;;;;10.52;7.18;;;17.40;90.30;;;;;;5072661;28;20032;-79
2021/07/08 01:54:50;;;;;;;13.43;7.20;;;17.50;90.40;;;;;;5072462;28;20397;-80
2021/07/08 01:57:16;;;;;;;14.43;7.78;;;17.50;90.40;;;;;;5055798;28;20496;-80
2021/07/08 01:59:42;;;;;;;10.77;7.63;;;17.50;90.50;;;;;;5072295;28;20032;-80
2021/07/08 02:02:08;;;;;;;11.60;7.50;;;17.50;90.50;;;;;;5055226;28;20484;-79
2021/07/08 02:04:34;;;;;;;10.35;7.38;;;17.40;90.50;;;;;;5073246;28;20437;-79
2021/07/08 02:07:00;;;;;;;13.15;7.40;;;17.50;90.60;;;;;;5073508;28;20060;-79
2021/07/08 02:09:26;;;;;;;10.90;8.18;;;17.50;90.50;;;;;;5072026;28;20078;-80
2021/07/08 02:11:52;;;;;;;10.65;7.75;;;17.50;90.50;;;;;;5055514;28;20033;-79
2021/07/08 02:14:18;;;;;;;10.02;7.00;;;17.40;90.40;;;;;;5072054;28;20043;-80
2021/07/08 02:16:44;;;;;;;9.95;7.20;;;17.40;90.40;;;;;;5072110;28;20468;-79
2021/07/08 02:19:10;;;;;;;13.02;7.47;;;17.40;90.70;;;;;;5055314;28;20040;-79
2021/07/08 02:21:35;;;;;;;10.35;7.30;;;17.30;90.40;;;;;;5072046;28;20028;-79
2021/07/08 02:24:01;;;;;;;10.00;6.47;;;17.30;90.40;;;;;;5071950;28;20055;-79
2021/07/08 02:26:27;;;;;;;9.55;7.05;;;17.30;90.50;;;;;;5072015;28;20039;-79
2021/07/08 02:28:52;;;;;;;8.73;6.55;;;17.30;90.50;;;;;;5055272;28;20032;-79
2021/07/08 02:31:18;;;;;;;12.00;7.57;;;17.30;90.50;;;;;;5073215;28;20119;-79
2021/07/08 02:33:44;;;;;;;11.45;6.70;;;17.30;90.50;;;;;;5055346;28;20119;-79
2021/07/08 02:36:11;;;;;;;10.25;6.65;;;17.20;90.50;;;;;;5073061;28;20292;-80
2021/07/08 02:38:37;;;;;;;12.60;6.50;;;17.20;90.50;;;;;;5054856;28;20105;-79
2021/07/08 02:41:05;;;;;;;9.48;7.18;;;17.20;90.60;;;;;;5055262;28;20036;-80
2021/07/08 02:43:31;;;;;;;10.00;6.78;;;17.20;90.60;;;;;;5071730;28;20388;-80
2021/07/08 02:45:57;;;;;;;9.95;6.28;;;17.10;90.70;;;;;;5071550;28;20476;-80
2021/07/08 02:48:23;;;;;;;13.02;7.07;;;17.10;90.70;;;;;;5055051;28;20028;-80
2021/07/08 02:50:51;;;;;;;14.23;6.97;;;17.10;90.80;;;;;;5051408;28;20039;-80
2021/07/08 02:53:17;;;;;;;9.77;7.03;;;17.10;90.80;;;;;;5052152;28;20033;-80
2021/07/08 02:55:43;;;;;;;10.77;7.40;;;17.10;90.80;;;;;;5055798;28;20029;-79
2021/07/08 02:58:10;;;;;;;10.55;7.28;;;17.20;90.90;;;;;;5039314;28;20384;-80
2021/07/08 03:00:36;;;;;;;12.07;8.10;;;17.20;90.90;;;;;;5055878;28;20033;-80
2021/07/08 03:03:01;;;;;;;15.80;7.32;;;17.10;90.90;;;;;;5055587;28;20036;-77
2021/07/08 03:05:27;;;;;;;11.85;7.15;;;17.20;90.90;;;;;;5055817;28;20029;-79
2021/07/08 03:07:54;;;;;;;12.52;6.78;;;17.20;91.00;;;;;;5075109;28;20032;-80
2021/07/08 03:10:22;;;;;;;9.60;6.80;;;17.20;91.00;;;;;;5075424;28;20112;-79
2021/07/08 03:12:48;;;;;;;11.70;7.40;;;17.10;91.00;;;;;;5075351;28;20078;-79
2021/07/08 03:15:15;;;;;;;11.45;7.40;;;17.10;91.00;;;;;;5075131;28;20040;-79
2021/07/08 03:17:41;;;;;;;9.93;7.25;;;17.10;91.10;;;;;;5075319;28;20071;-79
2021/07/08 03:20:11;;;;;;;10.77;7.25;;;17.10;91.10;;;;;;5076486;28;20361;-79
2021/07/08 03:22:40;;;;;;;11.82;7.50;;;17.10;91.20;;;;;;5074963;28;20413;-79
2021/07/08 03:25:08;;;;;;;13.68;7.63;;;17.10;91.20;;;;;;5075252;28;20038;-79
2021/07/08 03:27:34;;;;;;;8.77;6.60;;;17.20;91.20;;;;;;5074906;28;20472;-79
2021/07/08 03:30:00;;;;;;;9.25;7.10;;;17.20;91.30;;;;;;5075056;28;20077;-79
2021/07/08 03:32:25;;;;;;;12.75;6.97;;;17.20;91.60;;;;;;5076253;28;20400;-79
2021/07/08 03:34:51;;;;;;;10.73;7.13;;;17.20;91.30;;;;;;5074998;28;20068;-79
2021/07/08 03:37:17;;;;;;;14.60;7.38;;;17.20;91.40;;;;;;5074893;28;20029;-80
2021/07/08 03:39:42;;;;;;;12.40;7.10;;;17.20;91.60;;;;;;5049761;28;20518;-79
2021/07/08 03:42:08;;;;;;;11.43;7.10;;;17.20;91.50;;;;;;5054628;28;20041;-80
2021/07/08 03:44:34;;;;;;;10.57;6.97;;;17.20;91.50;;;;;;5054636;28;20033;-79
2021/07/08 03:46:59;;;;;;;10.95;7.25;;;17.30;91.60;;;;;;5054470;28;20040;-80
2021/07/08 03:49:25;;;;;;;10.18;7.35;;;17.30;91.60;;;;;;5054797;28;20032;-80
2021/07/08 03:51:51;;;;;;;8.77;6.80;;;17.30;91.60;;;;;;5054607;28;20536;-79
2021/07/08 03:54:16;;;;;;;11.02;7.55;;;17.30;91.60;;;;;;5057597;28;20492;-80
2021/07/08 03:56:42;;;;;;;13.02;8.07;;;17.40;91.50;;;;;;5057595;28;20384;-80
2021/07/08 03:59:08;;;;;;;11.52;7.65;;;17.40;91.50;;;;;;5057794;28;20027;-80
2021/07/08 04:01:34;;;;;;;10.50;7.38;;;17.40;91.50;;;;;;5073354;28;20028;-79
2021/07/08 04:03:59;;;;;;;12.82;7.60;;;17.40;91.50;;;;;;5056669;28;20086;-79
2021/07/08 04:06:25;;;;;;;9.98;7.55;;;17.40;91.50;;;;;;5073237;28;20033;-79
2021/07/08 04:08:51;;;;;;;11.35;7.47;;;17.40;91.60;;;;;;5074492;28;20033;-79
2021/07/08 04:11:16;;;;;;;11.85;7.75;;;17.30;91.50;;;;;;5074194;28;20473;-79
2021/07/08 04:13:42;;;;;;;9.98;6.82;;;17.40;91.60;;;;;;5057423;28;20105;-79
2021/07/08 04:16:08;;;;;;;12.23;8.07;;;17.30;91.50;;;;;;5073329;28;20025;-79
2021/07/08 04:18:33;;;;;;;10.98;7.35;;;17.30;91.50;;;;;;5057420;28;20069;-79
2021/07/08 04:20:59;;;;;;;10.70;7.63;;;17.30;91.60;;;;;;5074071;28;20106;-80
2021/07/08 04:23:25;;;;;;;15.95;8.00;;;17.30;91.60;;;;;;5057271;28;20020;-80
2021/07/08 04:25:50;;;;;;;11.95;7.75;;;17.30;91.60;;;;;;5073656;28;20093;-80
2021/07/08 04:28:16;;;;;;;10.60;8.40;;;17.40;91.70;;;;;;5075084;28;20033;-80
2021/07/08 04:30:43;;;;;;;12.43;7.78;;;17.40;91.70;;;;;;5073806;28;20032;-80
2021/07/08 04:33:09;;;;;;;10.43;7.40;;;17.40;91.80;;;;;;5075312;28;20025;-80
2021/07/08 04:35:39;;;;;;;12.95;8.63;;;17.40;91.80;;;;;;5073984;28;20542;-79
2021/07/08 04:38:07;;;;;;;11.82;7.88;;;17.40;91.90;;;;;;5073358;28;20123;-79
2021/07/08 04:40:33;;;;;;;10.63;7.90;;;17.50;92.00;;;;;;5073320;28;20379;-80
2021/07/08 04:42:59;;;;;;;11.93;8.48;;;17.50;92.00;;;;;;5074859;28;20048;-79
2021/07/08 04:45:25;;;;;;;11.27;8.77;;;17.50;92.20;;;;;;5057041;28;20056;-79
2021/07/08 04:47:51;;;;;;;11.52;8.23;;;17.50;91.90;;;;;;5073569;28;20055;-79
2021/07/08 04:50:20;;;;;;;12.70;8.70;;;17.50;91.90;;;;;;5074819;28;20118;-79
2021/07/08 04:52:47;;;;;;;12.75;8.50;;;17.50;91.90;;;;;;5074694;28;20073;-80
2021/07/08 04:55:13;;;;;;;10.52;8.10;;;17.60;91.90;;;;;;5073465;28;20056;-80
2021/07/08 04:57:39;;;;;;;10.75;8.52;;;17.60;91.90;;;;;;5056341;28;20047;-79
2021/07/08 05:00:09;;;;;;;13.73;9.18;;;17.60;91.90;;;;;;5073353;28;20532;-80
2021/07/08 05:02:39;;;;;;;11.10;7.82;;;17.60;91.90;;;;;;5073061;28;20116;-79
2021/07/08 05:05:07;;;;;;;15.00;8.35;;;17.70;91.90;;;;;;5073170;28;20048;-79
2021/07/08 05:07:33;;;;;;;13.13;7.70;;;17.70;91.80;;;;;;5056696;28;20032;-83
2021/07/08 05:09:58;;;;;;;10.90;7.90;;;17.70;91.80;;;;;;5073326;28;20029;-81
2021/07/08 05:12:24;;;;;;;12.00;8.73;;;17.70;91.70;;;;;;5052869;28;20473;-83
2021/07/08 05:14:50;;;;;;;12.10;8.25;;;17.70;91.70;;;;;;5071372;28;20699;-79
2021/07/08 05:17:15;;;;;;;11.05;8.27;;;17.70;91.60;;;;;;5072550;28;20028;-79
2021/07/08 05:19:41;;;;;;;12.30;8.68;;;17.80;91.70;;;;;;5072638;28;20013;-79
2021/07/08 05:22:07;;;;;;;13.10;8.35;;;17.80;91.60;;;;;;5073271;28;20099;-79
2021/07/08 05:24:33;;;;;;;10.85;7.93;;;17.90;91.60;;;;;;5056418;28;20025;-78
2021/07/08 05:26:59;;;;;;;11.57;8.48;;;17.90;91.60;;;;;;5074543;28;20108;-79
2021/07/08 05:29:26;;;;;;;12.43;7.80;;;18.00;91.60;;;;;;5073156;28;20032;-79
2021/07/08 05:31:51;;;;;;;13.05;7.40;;;18.00;91.60;;;;;;5072490;28;20484;-80
2021/07/08 05:34:18;;;;;;;10.40;8.02;;;18.00;91.80;;;;;;5072938;28;20082;-79
2021/07/08 05:36:43;;;;;;;11.75;8.27;;;18.00;91.50;;;;;;5092573;28;20102;-79
2021/07/08 05:39:09;;;;;;;15.57;8.35;;;18.00;91.50;;;;;;5055149;28;20136;-78
2021/07/08 05:41:35;;;;;;;10.73;7.95;;;18.10;91.50;;;;;;5054654;28;20503;-79
2021/07/08 05:44:00;;;;;;;11.73;7.95;;;18.10;91.50;;;;;;5072450;28;20123;-80
2021/07/08 05:46:26;;;;;;;12.15;8.60;;;18.20;91.60;;;;;;5055346;28;20129;-79
2021/07/08 05:48:53;;;;;;;12.05;9.07;;;18.20;91.60;;;;;;5072285;28;20025;-79
2021/07/08 05:51:19;;;;;;;12.30;8.85;;;18.30;91.50;;;;;;5072080;28;20024;-79
2021/07/08 05:53:45;;;;;;;13.80;9.25;;;18.30;91.40;;;;;;5073725;28;20031;-79
2021/07/08 05:56:10;;;;;;;14.02;10.40;;;18.40;91.40;;;;;;5044010;28;20025;-78
2021/07/08 05:58:36;;;;;;;14.23;9.23;;;18.50;91.30;;;;;;5052587;28;20032;-77
2021/07/08 06:01:02;;;;;;;14.80;9.40;;;18.50;91.50;;;;;;5052847;28;20377;-78
2021/07/08 06:03:27;;;;;;;14.63;8.90;;;18.50;91.10;;;;;;5052354;28;20434;-78
2021/07/08 06:05:53;;;;;;;13.38;9.80;;;18.60;91.10;;;;;;5079480;28;20070;-78
2021/07/08 06:08:19;;;;;;;11.10;8.45;;;18.60;91.00;;;;;;5071643;28;20052;-77
2021/07/08 06:10:44;;;;;;;11.70;9.20;;;18.60;90.90;;;;;;5073461;28;20025;-77
2021/07/08 06:13:11;;;;;;;10.52;7.82;;;18.60;90.90;;;;;;5072282;28;20082;-77
2021/07/08 06:15:37;;;;;;;13.02;9.60;;;18.60;90.90;;;;;;5054560;28;20392;-77
2021/07/08 06:18:03;;;;;;;12.13;9.15;;;18.50;91.10;;;;;;5052271;28;20424;-77
2021/07/08 06:20:29;;;;;;;13.23;9.02;;;18.50;90.90;;;;;;5068963;28;20061;-77
2021/07/08 06:22:55;;;;;;;13.93;10.23;;;18.50;90.90;;;;;;5052032;28;20021;-75
2021/07/08 06:25:22;;;;;;;14.25;10.60;;;18.40;90.90;;;;;;5068713;28;20025;-75
2021/07/08 06:27:49;;;;;;;14.15;10.98;;;18.40;90.80;;;;;;5052616;28;20032;-76
2021/07/08 06:30:15;;;;;;;13.55;9.77;;;18.40;90.90;;;;;;5052017;28;20108;-76
2021/07/08 06:32:41;;;;;;;16.30;10.85;;;18.50;90.90;;;;;;5068700;28;20033;-76
2021/07/08 06:35:08;;;;;;;14.18;9.57;;;18.40;90.80;;;;;;5068842;28;20098;-76
2021/07/08 06:37:37;;;;;;;12.65;9.20;;;18.40;90.80;;;;;;5068555;28;20028;-76
2021/07/08 06:40:04;;;;;;;13.05;9.27;;;18.50;90.80;;;;;;5068658;28;20113;-76
2021/07/08 06:42:29;;;;;;;17.20;10.55;;;18.40;90.70;;;;;;5053515;28;20100;-77
2021/07/08 06:44:55;;;;;;;15.27;10.07;;;18.40;90.70;;;;;;5053069;28;20120;-76
2021/07/08 06:47:21;;;;;;;14.13;9.52;;;18.50;90.70;;;;;;5053109;28;20111;-76
2021/07/08 06:49:47;;;;;;;13.85;10.00;;;18.50;90.70;;;;;;5051660;28;20125;-76
2021/07/08 06:52:16;;;;;;;12.85;10.57;;;18.50;90.60;;;;;;5068550;28;20107;-76
2021/07/08 06:54:42;;;;;;;13.48;10.57;;;18.60;90.60;;;;;;5068149;28;20040;-76
2021/07/08 06:57:07;;;;;;;14.18;10.43;;;18.60;90.60;;;;;;5068989;28;20361;-76
2021/07/08 06:59:33;;;;;;;21.52;11.10;;;18.60;90.50;;;;;;5053389;28;20025;-76
2021/07/08 07:01:59;;;;;;;13.40;10.63;;;18.60;90.70;;;;;;5068251;28;20025;-77
2021/07/08 07:04:25;;;;;;;12.27;9.75;;;18.60;90.40;;;;;;5072530;28;20029;-76
2021/07/08 07:06:51;;;;;;;15.18;9.82;;;18.70;90.40;;;;;;5071422;28;20024;-77
2021/07/08 07:09:18;;;;;;;15.02;10.85;;;18.70;90.20;;;;;;5071186;28;20430;-76
2021/07/08 07:11:44;;;;;;;15.20;10.50;;;18.70;90.10;;;;;;5071591;28;20139;-77
2021/07/08 07:14:09;;;;;;;15.63;10.00;;;18.70;90.10;;;;;;5048271;28;20547;-76
2021/07/08 07:16:35;;;;;;;13.80;9.35;;;18.70;90.00;;;;;;5053775;28;20119;-76
2021/07/08 07:19:01;;;;;;;13.02;9.73;;;18.80;89.80;;;;;;5072657;28;20029;-76
2021/07/08 07:21:26;;;;;;;12.68;10.32;;;18.80;89.70;;;;;;5071197;28;20044;-76
2021/07/08 07:23:52;;;;;;;14.43;10.23;;;18.90;89.60;;;;;;5072572;28;20020;-76
2021/07/08 07:26:21;;;;;;;15.95;10.20;;;18.90;89.50;;;;;;5071257;28;20032;-76
2021/07/08 07:28:47;;;;;;;18.10;10.07;;;19.00;89.30;;;;;;5072467;28;20029;-76
2021/07/08 07:31:13;;;;;;;13.32;8.95;;;19.10;89.10;;;;;;5072181;28;20033;-76
2021/07/08 07:38:59;;;;;;;11.20;7.53;;;19.20;87.20;;;;;;5074473;28;20740;-76
2021/07/08 07:41:24;;;;;;;10.63;7.88;;;19.30;87.20;;;;;;5065638;28;20032;-76
2021/07/08 07:43:50;;;;;;;10.75;6.97;;;19.50;86.80;;;;;;5053735;28;20038;-77
2021/07/08 07:46:16;;;;;;;8.98;6.10;;;19.60;86.70;;;;;;5063430;28;20025;-76
2021/07/08 07:48:41;;;;;;;11.38;7.78;;;19.70;86.50;;;;;;5051993;28;20342;-77
2021/07/08 07:51:07;;;;;;;11.65;7.60;;;19.90;86.20;;;;;;5064698;28;20415;-77
2021/07/08 07:53:33;;;;;;;10.35;7.10;;;20.00;86.00;;;;;;5068738;28;20379;-77
2021/07/08 07:55:58;;;;;;;9.00;5.82;;;20.10;85.90;;;;;;5055452;28;20362;-77
2021/07/08 07:58:26;;;;;;;9.65;5.97;;;20.10;85.60;;;;;;5073828;28;20120;-77
2021/07/08 08:00:54;;;;;;;12.60;7.20;;;20.10;85.80;;;;;;5063099;28;20429;-77
2021/07/08 08:03:19;;;;;;;9.45;6.22;;;20.20;84.80;;;;;;5054055;28;20496;-77
2021/07/08 08:05:54;;;;;;;11.25;6.80;;;20.30;84.40;;;;;;5066507;28;20028;-77
2021/07/08 08:08:30;;;;;;;8.95;6.47;;;20.40;84.30;;;;;;5073239;28;20037;-77
2021/07/08 08:10:58;;;;;;;10.55;6.25;;;20.50;84.00;;;;;;5070262;28;20032;-77
2021/07/08 08:13:24;;;;;;;9.20;5.72;;;20.70;83.80;;;;;;5070558;28;20104;-77
2021/07/08 08:15:51;;;;;;;8.43;4.82;;;20.90;83.80;;;;;;5069130;28;20036;-77
2021/07/08 08:18:18;;;;;;;9.60;5.30;;;21.10;84.10;;;;;;5068888;28;20021;-77
2021/07/08 08:20:45;;;;;;;8.32;4.45;;;21.20;83.20;;;;;;5070035;28;20037;-77
2021/07/08 08:23:11;;;;;;;7.82;4.65;;;21.40;82.80;;;;;;5052356;28;20021;-77
2021/07/08 08:25:37;;;;;;;7.75;4.43;;;21.50;82.20;;;;;;5070189;28;20459;-77
2021/07/08 08:28:03;;;;;;;11.80;6.07;;;21.60;81.60;;;;;;5069032;28;20021;-77
2021/07/08 08:30:29;;;;;;;8.25;4.05;;;21.80;80.30;;;;;;5068684;28;20028;-76
2021/07/08 08:32:55;;;;;;;9.68;4.90;;;21.80;79.60;;;;;;5069978;28;20111;-77
2021/07/08 08:35:21;;;;;;;7.20;4.35;;;21.90;78.50;;;;;;5068504;28;20439;-79
2021/07/08 08:37:48;;;;;;;7.22;4.70;;;21.80;77.60;;;;;;5068076;28;20094;-77
2021/07/08 08:40:15;;;;;;;7.15;4.28;;;21.90;77.20;;;;;;5068817;28;20036;-77
2021/07/08 08:42:45;;;;;;;7.72;4.22;;;21.90;76.90;;;;;;5068290;28;20049;-77
2021/07/08 08:45:17;;;;;;;8.48;4.38;;;22.00;76.80;;;;;;5069536;28;20029;-77
2021/07/08 08:47:59;;;;;;;6.35;3.60;;;22.00;76.40;;;;;;5052685;28;20120;-77
2021/07/08 08:50:25;;;;;;;6.90;3.00;;;22.10;75.40;;;;;;5056437;28;20025;-75
2021/07/08 08:52:51;;;;;;;7.63;3.33;;;22.20;75.20;;;;;;5076516;28;20051;-76
2021/07/08 08:55:17;;;;;;;6.05;3.25;;;22.20;74.50;;;;;;5076562;28;20115;-77
2021/07/08 08:57:46;;;;;;;10.23;3.67;;;22.30;73.60;;;;;;5076140;28;20111;-77
2021/07/08 09:00:23;;;;;;;5.07;2.90;;;22.30;73.20;;;;;;5075831;28;20024;-77
2021/07/08 09:03:04;;;;;;;5.25;2.47;;;22.40;72.90;;;;;;5074644;28;20111;-77
2021/07/08 09:05:30;;;;;;;6.93;2.80;;;22.50;72.20;;;;;;5074814;28;20522;-77
2021/07/08 09:08:22;;;;;;;7.43;3.15;;;22.70;72.00;;;;;;5075593;28;20045;-77
2021/07/08 09:11:02;;;;;;;3.85;2.45;;;22.90;71.50;;;;;;5076054;28;20024;-77
2021/07/08 09:13:47;;;;;;;8.13;3.25;;;23.00;71.40;;;;;;5074922;28;20020;-77
2021/07/08 09:16:14;;;;;;;7.03;2.92;;;23.20;70.20;;;;;;5068649;28;20032;-77
2021/07/08 09:18:41;;;;;;;6.47;2.67;;;23.30;69.80;;;;;;5061882;28;20385;-77
2021/07/08 09:21:21;;;;;;;5.95;2.33;;;23.40;69.20;;;;;;5047351;28;20080;-77
2021/07/08 09:24:13;;;;;;;5.40;2.22;;;23.50;68.40;;;;;;5045892;28;20112;-77
2021/07/08 09:26:59;;;;;;;6.63;1.95;;;23.70;68.00;;;;;;5066342;28;20013;-77
2021/07/08 09:29:29;;;;;;;3.78;1.50;;;23.80;67.80;;;;;;5049510;28;20473;-77
2021/07/08 09:32:01;;;;;;;6.38;2.10;;;23.80;67.20;;;;;;5057401;28;20033;-78
2021/07/08 09:34:32;;;;;;;3.60;2.03;;;23.90;66.70;;;;;;5055294;28;20086;-77
2021/07/08 09:37:04;;;;;;;5.97;2.65;;;24.10;66.60;;;;;;5053744;28;20083;-78
2021/07/08 09:39:38;;;;;;;8.15;3.03;;;24.20;66.30;;;;;;5055384;28;20373;-77
2021/07/08 09:42:05;;;;;;;8.45;2.85;;;24.20;65.40;;;;;;5055269;28;20025;-77
2021/07/08 09:44:31;;;;;;;7.90;2.78;;;24.10;64.90;;;;;;5055619;28;20373;-77
2021/07/08 09:46:57;;;;;;;6.53;2.40;;;24.10;64.80;;;;;;5037665;28;20112;-77
2021/07/08 09:49:25;;;;;;;8.93;3.38;;;24.10;64.70;;;;;;5037278;28;20518;-77
2021/07/08 09:51:52;;;;;;;6.53;3.00;;;24.10;64.10;;;;;;5055103;28;20024;-77
2021/07/08 09:54:43;;;;;;;8.43;2.92;;;24.10;63.90;;;;;;5053889;28;20021;-78
2021/07/08 09:57:29;;;;;;;7.82;2.78;;;24.00;63.70;;;;;;5055222;28;20033;-74
2021/07/08 09:59:54;;;;;;;5.45;2.80;;;24.00;63.80;;;;;;5053665;28;20025;-77
2021/07/08 10:02:29;;;;;;;8.30;2.60;;;24.00;63.40;;;;;;5053108;28;20514;-77
2021/07/08 10:04:55;;;;;;;5.10;2.80;;;24.00;63.30;;;;;;5054868;28;20029;-77
2021/07/08 10:07:21;;;;;;;4.25;2.97;;;24.00;63.20;;;;;;5053761;28;20033;-77
2021/07/08 10:09:47;;;;;;;6.15;3.10;;;24.10;63.30;;;;;;5054660;28;20037;-77
2021/07/08 10:12:13;;;;;;;4.93;2.58;;;24.10;63.30;;;;;;5053444;28;20029;-77
2021/07/08 10:14:42;;;;;;;7.60;2.72;;;24.20;63.40;;;;;;5054821;28;20029;-77
2021/07/08 10:17:09;;;;;;;7.78;2.80;;;24.30;62.80;;;;;;5054655;28;20025;-77
2021/07/08 10:19:36;;;;;;;5.72;2.42;;;24.30;62.40;;;;;;5060029;28;20456;-77
2021/07/08 10:22:02;;;;;;;7.35;2.65;;;24.30;62.40;;;;;;5040058;28;20028;-77
2021/07/08 10:24:29;;;;;;;5.50;2.70;;;24.40;62.20;;;;;;5057606;28;20024;-76
2021/07/08 10:26:55;;;;;;;7.07;2.65;;;24.50;61.30;;;;;;5063615;28;20025;-77
2021/07/08 10:29:21;;;;;;;5.70;2.30;;;24.50;61.30;;;;;;5059308;28;20029;-77
2021/07/08 10:31:50;;;;;;;10.48;2.85;;;24.60;61.30;;;;;;5065896;28;20021;-77
2021/07/08 10:34:20;;;;;;;6.38;2.35;;;24.70;61.10;;;;;;5061504;28;20021;-78
2021/07/08 10:36:47;;;;;;;5.28;2.30;;;24.90;61.30;;;;;;5063978;28;20021;-77
2021/07/08 10:39:15;;;;;;;4.75;2.28;;;25.10;61.00;;;;;;5060387;28;20043;-78
2021/07/08 10:41:51;;;;;;;9.13;2.35;;;25.40;61.20;;;;;;5053793;28;20033;-78
2021/07/08 10:44:48;;;;;;;5.97;2.15;;;25.70;60.10;;;;;;5035779;28;20029;-77
2021/07/08 10:47:30;;;;;;;5.05;2.25;;;26.00;58.90;;;;;;5057597;28;20128;-77
2021/07/08 10:49:56;;;;;;;6.63;2.83;;;26.20;58.10;;;;;;5063622;28;20088;-77
2021/07/08 10:52:43;;;;;;;8.20;2.40;;;26.40;57.70;;;;;;5064022;28;20044;-77
2021/07/08 10:55:09;;;;;;;6.07;2.28;;;26.70;56.20;;;;;;5034004;28;20127;-78
2021/07/08 10:57:38;;;;;;;6.55;2.05;;;26.70;55.30;;;;;;5032630;28;20067;-79
2021/07/08 11:00:43;;;;;;;5.68;1.92;;;26.90;55.50;;;;;;5035597;28;20351;-78
2021/07/08 11:03:42;;;;;;;6.90;2.17;;;27.00;54.90;;;;;;5054139;28;20513;-77
2021/07/08 11:06:23;;;;;;;7.55;2.00;;;27.20;54.30;;;;;;5053932;28;20056;-77
2021/07/08 11:09:17;;;;;;;7.03;1.92;;;27.40;54.50;;;;;;5052330;28;20473;-76
2021/07/08 11:11:46;;;;;;;3.00;1.58;;;27.50;54.80;;;;;;5052819;28;20037;-76
2021/07/08 11:14:14;;;;;;;4.40;1.63;;;27.50;54.70;;;;;;5053300;28;20101;-77
2021/07/08 11:16:46;;;;;;;5.78;2.05;;;27.60;54.50;;;;;;5053621;28;20017;-77
2021/07/08 11:19:15;;;;;;;5.53;1.70;;;27.60;54.30;;;;;;5053499;28;20373;-76
2021/07/08 11:22:03;;;;;;;4.63;1.60;;;27.60;54.20;;;;;;5053781;28;20029;-76
2021/07/08 11:24:44;;;;;;;4.20;1.30;;;27.60;53.70;;;;;;5045446;28;20048;-75
2021/07/08 11:27:13;;;;;;;6.45;1.80;;;27.70;54.40;;;;;;5052188;28;20024;-76
2021/07/08 11:29:54;;;;;;;4.07;1.65;;;27.80;54.00;;;;;;5053608;28;20098;-76
2021/07/08 11:32:26;;;;;;;4.68;1.67;;;27.90;53.30;;;;;;5053470;28;20033;-76
2021/07/08 11:35:07;;;;;;;5.10;1.70;;;27.90;53.10;;;;;;5053535;28;20127;-76
2021/07/08 11:37:39;;;;;;;5.25;1.52;;;28.00;52.90;;;;;;5053131;28;20049;-77
2021/07/08 11:40:12;;;;;;;4.13;1.33;;;28.00;52.70;;;;;;5052949;28;20028;-77
2021/07/08 11:42:40;;;;;;;4.55;1.40;;;28.10;52.30;;;;;;5053599;28;20021;-74
2021/07/08 11:45:12;;;;;;;5.60;1.90;;;28.20;52.20;;;;;;5052302;28;20021;-74
2021/07/08 11:47:43;;;;;;;3.40;1.20;;;28.30;52.00;;;;;;5053395;28;20025;-76
2021/07/08 11:50:29;;;;;;;5.25;1.58;;;28.40;51.90;;;;;;5053256;28;20361;-75
2021/07/08 11:53:12;;;;;;;4.95;1.25;;;28.40;51.30;;;;;;5053039;28;20060;-73
2021/07/08 11:55:49;;;;;;;6.75;1.67;;;28.50;51.50;;;;;;5053529;28;20100;-74
2021/07/08 11:58:23;;;;;;;4.80;1.30;;;28.70;51.70;;;;;;5053400;28;20103;-75
2021/07/08 12:00:53;;;;;;;4.35;1.42;;;28.80;52.00;;;;;;5051815;28;20025;-75
2021/07/08 12:03:31;;;;;;;3.17;1.10;;;28.90;51.10;;;;;;5053038;28;20056;-75
2021/07/08 12:06:09;;;;;;;2.72;1.00;;;29.00;50.70;;;;;;5067153;28;20048;-74
2021/07/08 12:08:41;;;;;;;5.13;1.60;;;29.10;50.40;;;;;;5073264;28;20029;-75
2021/07/08 12:11:14;;;;;;;4.97;1.35;;;29.10;50.20;;;;;;5059577;28;20029;-75
2021/07/08 12:13:53;;;;;;;3.15;1.13;;;29.20;50.00;;;;;;5053293;28;20029;-74
2021/07/08 12:16:27;;;;;;;2.72;1.20;;;29.30;49.70;;;;;;5051538;28;20033;-75
2021/07/08 12:18:54;;;;;;;4.47;1.45;;;29.50;49.70;;;;;;5053204;28;20025;-74
2021/07/08 12:21:39;;;;;;;3.95;1.60;;;29.60;49.40;;;;;;5052813;28;20025;-74
2021/07/08 12:24:05;;;;;;;4.28;1.30;;;29.60;48.30;;;;;;5053697;28;20087;-74
2021/07/08 12:26:37;;;;;;;4.22;1.40;;;29.60;48.60;;;;;;5055448;28;20048;-75
2021/07/08 12:29:17;;;;;;;3.58;1.20;;;29.50;48.30;;;;;;5055463;28;20025;-74
2021/07/08 12:31:45;;;;;;;3.85;1.10;;;29.50;48.00;;;;;;5035725;28;20057;-74
2021/07/08 12:34:11;;;;;;;2.92;1.15;;;29.50;47.90;;;;;;5062014;28;20028;-75
2021/07/08 12:36:37;;;;;;;2.97;1.20;;;29.60;47.80;;;;;;5059209;28;20032;-74
2021/07/08 12:39:04;;;;;;;2.63;1.10;;;29.60;47.50;;;;;;5059718;28;20128;-75
2021/07/08 12:41:30;;;;;;;3.58;1.27;;;29.70;47.30;;;;;;5051747;28;20013;-76
2021/07/08 12:43:56;;;;;;;2.80;1.13;;;29.70;47.30;;;;;;5041303;28;20062;-74
2021/07/08 12:46:30;;;;;;;4.30;1.25;;;29.70;47.20;;;;;;5046145;28;20076;-75
2021/07/08 12:48:56;;;;;;;3.35;1.52;;;29.70;47.10;;;;;;5041551;28;20033;-75
2021/07/08 12:51:23;;;;;;;3.42;1.33;;;29.70;47.30;;;;;;5042486;28;20035;-74
2021/07/08 12:53:49;;;;;;;3.17;1.15;;;29.60;47.10;;;;;;5059423;28;20037;-75